createdAt,value
2018-11-13T00:00:39.414Z,30.37
2018-11-13T00:03:04.479Z,30.67
2018-11-13T00:05:29.852Z,28.47
2018-11-13T00:07:54.940Z,29.70
2018-11-13T00:10:20.050Z,28.80
2018-11-13T00:12:45.229Z,29.23
2018-11-13T00:15:10.698Z,29.40
2018-11-13T00:17:54.857Z,29.00
2018-11-13T00:20:20.275Z,27.20
2018-11-13T00:22:45.796Z,31.57
2018-11-13T00:25:12.307Z,30.40
2018-11-13T00:27:37.537Z,27.90
2018-11-13T00:30:02.617Z,34.40
2018-11-13T00:32:27.725Z,31.27
2018-11-13T00:34:52.827Z,31.50
2018-11-13T00:37:18.042Z,32.77
2018-11-13T00:39:43.139Z,33.27
2018-11-13T00:42:08.276Z,31.27
2018-11-13T00:44:33.402Z,35.10
2018-11-13T00:46:58.470Z,30.73
2018-11-13T00:49:23.715Z,33.40
2018-11-13T00:51:48.708Z,36.33
2018-11-13T00:54:13.799Z,32.13
2018-11-13T00:56:38.905Z,31.13
2018-11-13T00:59:03.999Z,29.93
2018-11-13T01:01:29.081Z,32.87
2018-11-13T01:03:54.189Z,34.47
2018-11-13T01:06:19.299Z,34.87
2018-11-13T01:08:44.389Z,30.17
2018-11-13T01:11:09.501Z,35.47
2018-11-13T01:13:34.575Z,35.33
2018-11-13T01:15:59.692Z,30.77
2018-11-13T01:18:24.780Z,35.77
2018-11-13T01:20:49.882Z,32.07
2018-11-13T01:23:15.088Z,34.20
2018-11-13T01:25:51.959Z,36.67
2018-11-13T01:28:17.089Z,35.70
2018-11-13T01:30:42.187Z,35.50
2018-11-13T01:33:07.318Z,37.70
2018-11-13T01:35:51.378Z,35.87
2018-11-13T01:38:16.461Z,37.63
2018-11-13T01:40:41.612Z,36.90
2018-11-13T01:43:25.644Z,32.23
2018-11-13T01:45:50.768Z,36.47
2018-11-13T01:48:34.795Z,34.17
2018-11-13T01:50:59.906Z,36.37
2018-11-13T01:53:43.950Z,38.60
2018-11-13T01:56:09.085Z,38.80
2018-11-13T01:58:34.391Z,37.07
2018-11-13T02:00:59.244Z,42.73
2018-11-13T02:03:24.328Z,34.93
2018-11-13T02:05:49.421Z,32.87
2018-11-13T02:08:14.536Z,37.07
2018-11-13T02:10:58.584Z,36.63
2018-11-13T02:13:23.688Z,33.07
2018-11-13T02:15:48.743Z,38.13
2018-11-13T02:18:13.819Z,33.03
2018-11-13T02:20:38.936Z,34.30
2018-11-13T02:23:03.995Z,35.40
2018-11-13T02:25:29.108Z,38.83
2018-11-13T02:27:54.166Z,37.80
2018-11-13T02:30:20.690Z,34.80
2018-11-13T02:32:46.394Z,36.87
2018-11-13T02:35:12.025Z,35.07
2018-11-13T02:37:37.232Z,39.87
2018-11-13T02:40:02.303Z,44.07
2018-11-13T02:42:27.355Z,36.90
2018-11-13T02:44:52.423Z,41.97
2018-11-13T02:47:17.516Z,36.73
2018-11-13T02:49:42.764Z,42.27
2018-11-13T02:52:07.743Z,44.47
2018-11-13T02:54:32.811Z,42.60
2018-11-13T02:56:57.916Z,38.93
2018-11-13T02:59:22.982Z,54.27
2018-11-13T03:01:48.108Z,48.40
2018-11-13T03:04:13.195Z,39.70
2018-11-13T03:06:57.267Z,42.60
2018-11-13T03:09:22.327Z,46.33
2018-11-13T03:11:47.418Z,46.17
2018-11-13T03:14:12.478Z,44.80
2018-11-13T03:16:56.542Z,47.23
2018-11-13T03:19:21.631Z,44.00
2018-11-13T03:21:46.872Z,47.70
2018-11-13T03:24:12.033Z,50.33
2018-11-13T03:26:37.173Z,50.67
2018-11-13T03:29:02.309Z,48.33
2018-11-13T03:31:27.492Z,43.63
2018-11-13T03:33:52.530Z,47.53
2018-11-13T03:36:17.663Z,52.83
2018-11-13T03:38:42.769Z,51.93
2018-11-13T03:46:40.051Z,52.77
2018-11-13T03:49:05.391Z,63.57
2018-11-13T03:51:30.564Z,57.53
2018-11-13T03:53:55.835Z,59.50
2018-11-13T03:56:20.965Z,61.37
2018-11-13T03:59:04.992Z,65.80
2018-11-13T04:01:30.140Z,67.83
2018-11-13T04:03:55.224Z,70.40
2018-11-13T04:06:32.003Z,59.00
2018-11-13T04:08:57.150Z,58.23
2018-11-13T04:11:22.251Z,56.70
2018-11-13T04:14:06.314Z,53.50
2018-11-13T04:16:50.369Z,66.47
2018-11-13T04:19:34.426Z,63.67
2018-11-13T04:22:18.476Z,63.33
2018-11-13T04:25:02.564Z,63.17
2018-11-13T04:27:27.671Z,63.73
2018-11-13T04:29:52.777Z,55.27
2018-11-13T04:32:17.909Z,60.47
2018-11-13T04:34:42.980Z,61.93
2018-11-13T04:37:27.003Z,67.33
2018-11-13T04:39:52.084Z,65.77
2018-11-13T04:42:17.184Z,61.87
2018-11-13T04:44:42.262Z,59.33
2018-11-13T04:47:07.474Z,60.87
2018-11-13T04:49:32.569Z,51.60
2018-11-13T04:51:57.681Z,59.80
2018-11-13T04:54:22.765Z,59.90
2018-11-13T04:59:24.240Z,68.43
2018-11-13T05:01:49.322Z,56.33
2018-11-13T05:04:14.395Z,57.97
2018-11-13T05:06:39.508Z,61.63
2018-11-13T05:09:05.421Z,59.17
2018-11-13T05:11:49.516Z,62.03
2018-11-13T05:14:33.566Z,67.23
2018-11-13T05:16:58.679Z,60.40
2018-11-13T05:19:23.785Z,63.07
2018-11-13T05:22:07.955Z,59.77
2018-11-13T05:24:33.036Z,68.73
2018-11-13T05:27:17.163Z,70.07
2018-11-13T05:29:42.297Z,79.87
2018-11-13T05:32:07.411Z,81.20
2018-11-13T05:34:32.652Z,74.07
2018-11-13T05:36:57.764Z,77.27
2018-11-13T05:39:22.853Z,86.60
2018-11-13T05:41:48.132Z,73.57
2018-11-13T05:44:13.177Z,72.87
2018-11-13T05:46:38.774Z,76.13
2018-11-13T05:49:03.911Z,67.47
2018-11-13T05:51:29.081Z,81.63
2018-11-13T05:53:54.224Z,69.90
2018-11-13T05:56:19.333Z,79.40
2018-11-13T05:58:44.457Z,74.97
2018-11-13T06:01:16.751Z,73.17
2018-11-13T06:03:45.100Z,71.57
2018-11-13T06:06:10.209Z,64.77
2018-11-13T06:11:33.463Z,68.17
2018-11-13T06:13:58.687Z,65.07
2018-11-13T06:16:23.790Z,64.47
2018-11-13T06:21:42.410Z,58.67
2018-11-13T06:24:07.524Z,71.97
2018-11-13T06:26:32.662Z,66.37
2018-11-13T06:31:52.855Z,66.17
2018-11-13T06:34:17.900Z,65.30
2018-11-13T06:39:41.136Z,68.47
2018-11-13T06:42:06.429Z,66.87
2018-11-13T06:44:31.526Z,73.13
2018-11-13T06:46:56.577Z,65.20
2018-11-13T06:49:21.689Z,78.43
2018-11-13T06:51:46.749Z,80.03
2018-11-13T06:54:52.682Z,73.30
2018-11-13T06:57:17.793Z,67.10
2018-11-13T06:59:42.861Z,70.87
2018-11-13T07:02:08.352Z,76.80
2018-11-13T07:04:33.427Z,67.63
2018-11-13T07:06:58.543Z,68.40
2018-11-13T07:09:23.627Z,78.83
2018-11-13T07:11:48.705Z,74.73
2018-11-13T07:14:13.811Z,70.23
2018-11-13T07:16:57.855Z,65.53
2018-11-13T07:19:22.948Z,76.57
2018-11-13T07:21:48.041Z,74.70
2018-11-13T07:24:13.159Z,66.63
2018-11-13T07:26:38.327Z,61.30
2018-11-13T07:29:03.475Z,60.47
2018-11-13T07:31:47.583Z,67.20
2018-11-13T07:34:12.690Z,62.00
2018-11-13T07:36:37.800Z,67.37
2018-11-13T07:39:02.933Z,60.00
2018-11-13T07:41:28.031Z,61.10
2018-11-13T07:43:53.165Z,62.60
2018-11-13T07:46:18.306Z,65.03
2018-11-13T07:48:43.397Z,58.37
2018-11-13T07:51:08.707Z,61.53
2018-11-13T07:53:34.042Z,62.53
2018-11-13T07:55:59.164Z,63.93
2018-11-13T07:58:24.250Z,60.37
2018-11-13T08:00:49.329Z,58.93
2018-11-13T08:03:34.904Z,68.50
2018-11-13T08:06:00.352Z,77.57
2018-11-13T08:08:25.446Z,70.07
2018-11-13T08:10:50.563Z,68.20
2018-11-13T08:13:15.949Z,63.50
2018-11-13T08:15:40.880Z,63.37
2018-11-13T08:18:05.909Z,66.40
2018-11-13T08:20:31.075Z,72.57
2018-11-13T08:22:56.172Z,67.43
2018-11-13T08:25:21.399Z,68.67
2018-11-13T08:30:22.744Z,70.10
2018-11-13T08:32:48.121Z,71.77
2018-11-13T08:35:13.224Z,73.17
2018-11-13T08:37:38.346Z,67.03
2018-11-13T08:40:03.444Z,70.37
2018-11-13T08:42:28.571Z,63.53
2018-11-13T08:44:53.686Z,64.17
2018-11-13T08:47:18.789Z,58.17
2018-11-13T08:49:43.923Z,69.73
2018-11-13T08:52:09.090Z,69.90
2018-11-13T08:54:34.162Z,59.20
2018-11-13T08:56:59.246Z,68.93
2018-11-13T08:59:24.425Z,68.27
2018-11-13T09:01:49.439Z,64.20
2018-11-13T09:04:33.508Z,65.93
2018-11-13T09:06:58.603Z,60.27
2018-11-13T09:09:23.710Z,64.17
2018-11-13T09:11:49.019Z,56.97
2018-11-13T09:14:13.941Z,60.53
2018-11-13T09:16:39.107Z,63.07
2018-11-13T09:19:04.242Z,57.63
2018-11-13T09:21:29.327Z,57.63
2018-11-13T09:23:54.452Z,53.83
2018-11-13T09:26:19.520Z,53.83
2018-11-13T09:28:44.626Z,55.60
2018-11-13T09:31:09.818Z,52.37
2018-11-13T09:33:35.428Z,54.37
2018-11-13T09:36:00.503Z,51.53
2018-11-13T09:38:25.573Z,58.87
2018-11-13T09:40:50.718Z,59.17
2018-11-13T09:43:15.816Z,53.10
2018-11-13T09:45:40.950Z,53.63
2018-11-13T09:48:06.346Z,53.53
2018-11-13T09:50:31.524Z,53.60
2018-11-13T09:52:56.595Z,56.33
2018-11-13T09:55:22.847Z,47.77
2018-11-13T09:57:47.999Z,46.93
2018-11-13T10:00:15.913Z,44.53
2018-11-13T10:02:41.413Z,38.97
2018-11-13T10:05:07.361Z,38.33
2018-11-13T10:07:31.669Z,39.73
2018-11-13T10:09:56.753Z,34.43
2018-11-13T10:12:21.832Z,33.93
2018-11-13T10:14:46.935Z,32.00
2018-11-13T10:17:12.033Z,27.60
2018-11-13T10:19:37.096Z,27.03
2018-11-13T10:22:02.209Z,25.43
2018-11-13T10:24:27.308Z,25.73
2018-11-13T10:26:54.667Z,23.43
2018-11-13T10:29:19.789Z,21.23
2018-11-13T10:31:44.852Z,23.93
2018-11-13T10:34:09.949Z,23.60
2018-11-13T10:36:35.039Z,23.20
2018-11-13T10:39:00.144Z,23.40
2018-11-13T10:41:25.715Z,19.50
2018-11-13T10:43:50.721Z,18.87
2018-11-13T10:46:15.816Z,18.67
2018-11-13T10:51:17.537Z,17.33
2018-11-13T10:53:42.648Z,16.50
2018-11-13T10:56:08.776Z,14.20
2018-11-13T10:58:45.609Z,14.87
2018-11-13T11:01:29.431Z,18.57
2018-11-13T11:04:13.247Z,15.13
2018-11-13T11:06:38.393Z,15.47
2018-11-13T11:09:04.550Z,14.77
2018-11-13T11:11:29.715Z,10.40
2018-11-13T11:13:54.891Z,8.67
2018-11-13T11:16:19.813Z,8.53
2018-11-13T11:18:45.018Z,8.53
2018-11-13T11:21:10.065Z,6.13
2018-11-13T11:23:35.374Z,6.13
2018-11-13T11:26:00.265Z,6.60
2018-11-13T11:28:25.349Z,5.77
2018-11-13T11:30:50.474Z,4.53
2018-11-13T11:33:15.522Z,5.77
2018-11-13T11:35:40.616Z,4.77
2018-11-13T11:38:06.129Z,5.67
2018-11-13T11:40:31.217Z,5.70
2018-11-13T11:42:56.325Z,4.83
2018-11-13T11:45:21.403Z,5.50
2018-11-13T11:48:05.452Z,3.93
2018-11-13T11:50:49.517Z,8.30
2018-11-13T11:53:14.617Z,3.10
2018-11-13T11:55:58.639Z,3.33
2018-11-13T11:58:23.795Z,4.40
2018-11-13T12:00:49.030Z,5.53
2018-11-13T12:03:13.967Z,4.23
2018-11-13T12:05:39.090Z,4.43
2018-11-13T12:08:04.204Z,4.53
2018-11-13T12:10:29.354Z,4.10
2018-11-13T12:12:54.433Z,4.60
2018-11-13T12:15:19.495Z,3.23
2018-11-13T12:17:45.126Z,5.30
2018-11-13T12:20:11.840Z,5.07
2018-11-13T12:22:36.980Z,6.53
2018-11-13T12:25:02.093Z,4.03
2018-11-13T12:27:27.207Z,4.17
2018-11-13T12:29:52.326Z,3.57
2018-11-13T12:32:17.459Z,5.03
2018-11-13T12:34:42.718Z,2.50
2018-11-13T12:37:07.700Z,4.20
2018-11-13T12:39:32.789Z,3.67
2018-11-13T12:41:57.884Z,3.43
2018-11-13T12:44:22.951Z,3.07
2018-11-13T12:46:48.083Z,2.87
2018-11-13T12:49:15.044Z,3.20
2018-11-13T12:54:33.777Z,4.47
2018-11-13T12:56:58.882Z,3.30
2018-11-13T12:59:24.006Z,5.47
2018-11-13T13:01:49.083Z,11.77
2018-11-13T13:04:14.159Z,6.03
2018-11-13T13:06:39.310Z,3.87
2018-11-13T13:09:04.898Z,5.40
2018-11-13T13:11:30.018Z,4.43
2018-11-13T13:14:13.820Z,3.73
2018-11-13T13:16:57.867Z,5.13
2018-11-13T13:19:22.962Z,4.33
2018-11-13T13:21:48.116Z,4.63
2018-11-13T13:24:16.637Z,5.43
2018-11-13T13:26:41.798Z,6.20
2018-11-13T13:29:07.380Z,5.40
2018-11-13T13:31:51.499Z,3.33
2018-11-13T13:34:16.921Z,5.50
2018-11-13T13:36:42.025Z,4.47
2018-11-13T13:39:09.488Z,4.80
2018-11-13T13:41:36.219Z,4.77
2018-11-13T13:44:01.348Z,5.90
2018-11-13T13:49:25.632Z,5.77
2018-11-13T13:51:50.763Z,4.87
2018-11-13T13:54:15.911Z,4.33
2018-11-13T13:56:41.046Z,4.40
2018-11-13T13:59:06.243Z,9.00
2018-11-13T14:01:31.362Z,5.13
2018-11-13T14:03:56.482Z,5.60
2018-11-13T14:06:21.634Z,5.70
2018-11-13T14:08:46.735Z,6.37
2018-11-13T14:13:48.439Z,6.83
2018-11-13T14:16:13.591Z,4.67
2018-11-13T14:18:57.628Z,4.63
2018-11-13T14:21:22.739Z,5.47
2018-11-13T14:23:47.859Z,7.27
2018-11-13T14:26:12.951Z,3.93
2018-11-13T14:28:38.071Z,3.43
2018-11-13T14:31:03.126Z,4.07
2018-11-13T14:33:28.227Z,4.03
2018-11-13T14:35:53.337Z,2.27
2018-11-13T14:40:55.144Z,3.70
2018-11-13T14:43:20.226Z,2.33
2018-11-13T14:45:45.514Z,2.20
2018-11-13T14:48:11.108Z,2.37
2018-11-13T14:50:36.588Z,3.63
2018-11-13T14:55:39.618Z,1.57
2018-11-13T14:58:05.492Z,2.43
2018-11-13T15:00:31.633Z,2.90
2018-11-13T15:02:57.343Z,2.70
2018-11-13T15:05:23.176Z,1.70
2018-11-13T15:08:08.126Z,2.53
2018-11-13T15:10:53.390Z,2.17
2018-11-13T15:13:18.963Z,2.40
2018-11-13T15:15:44.069Z,3.87
2018-11-13T15:18:09.671Z,3.63
2018-11-13T15:20:34.741Z,2.63
2018-11-13T15:22:59.837Z,3.23
2018-11-13T15:25:24.924Z,3.27
2018-11-13T15:27:50.033Z,3.23
2018-11-13T15:30:34.661Z,3.73
2018-11-13T15:33:04.153Z,2.43
2018-11-13T15:35:29.291Z,4.00
2018-11-13T15:40:31.179Z,3.97
2018-11-13T15:42:56.246Z,4.30
2018-11-13T15:45:21.782Z,7.47
2018-11-13T15:47:47.675Z,6.83
2018-11-13T15:50:35.125Z,7.43
2018-11-13T15:53:00.257Z,5.77
2018-11-13T15:55:25.369Z,4.27
2018-11-13T15:57:50.690Z,5.87
2018-11-13T16:06:11.583Z,5.37
2018-11-13T16:08:36.590Z,9.13
2018-11-13T16:11:01.704Z,14.93
2018-11-13T16:13:45.746Z,7.33
2018-11-13T16:16:10.879Z,6.50
2018-11-13T16:18:36.030Z,6.53
2018-11-13T16:21:01.172Z,5.83
2018-11-13T16:23:45.108Z,6.53
2018-11-13T16:26:10.242Z,6.87
2018-11-13T16:28:35.379Z,4.63
2018-11-13T16:31:00.565Z,4.87
2018-11-13T16:33:25.578Z,4.60
2018-11-13T16:35:50.694Z,9.47
2018-11-13T16:38:15.981Z,4.60
2018-11-13T16:40:41.207Z,3.90
2018-11-13T16:43:06.213Z,5.27
2018-11-13T16:45:32.419Z,4.67
2018-11-13T16:47:58.210Z,3.43
2018-11-13T16:50:24.321Z,5.27
2018-11-13T16:52:49.486Z,4.63
2018-11-13T16:55:33.726Z,6.60
2018-11-13T16:57:59.670Z,7.77
2018-11-13T17:00:25.111Z,4.53
2018-11-13T17:03:09.138Z,3.80
2018-11-13T17:05:34.301Z,5.53
2018-11-13T17:07:59.341Z,7.23
2018-11-13T17:10:25.852Z,6.50
2018-11-13T17:12:51.427Z,4.53
2018-11-13T17:15:21.354Z,6.47
2018-11-13T17:17:47.269Z,3.87
2018-11-13T17:20:13.231Z,5.67
2018-11-13T17:22:39.129Z,5.07
2018-11-13T17:25:04.642Z,6.10
2018-11-13T17:27:29.808Z,4.67
2018-11-13T17:30:14.708Z,4.20
2018-11-13T17:32:39.957Z,5.10
2018-11-13T17:35:05.064Z,7.90
2018-11-13T17:37:30.171Z,4.83
2018-11-13T17:39:55.328Z,6.43
2018-11-13T17:44:56.452Z,5.77
2018-11-13T17:47:40.517Z,5.90
2018-11-13T17:50:08.845Z,7.43
2018-11-13T17:52:33.916Z,6.30
2018-11-13T17:54:59.059Z,8.10
2018-11-13T17:57:24.229Z,7.80
2018-11-13T17:59:49.372Z,7.63
2018-11-13T18:02:14.592Z,5.47
2018-11-13T18:04:39.872Z,4.90
2018-11-13T18:07:05.023Z,7.67
2018-11-13T18:09:30.140Z,8.50
2018-11-13T18:11:55.216Z,4.97
2018-11-13T18:14:20.466Z,8.97
2018-11-13T18:16:45.462Z,10.10
2018-11-13T18:19:10.638Z,5.87
2018-11-13T18:21:35.853Z,6.43
2018-11-13T18:24:00.867Z,4.57
2018-11-13T18:26:26.005Z,11.07
2018-11-13T18:28:51.122Z,6.97
2018-11-13T18:31:16.268Z,4.80
2018-11-13T18:33:41.379Z,6.80
2018-11-13T18:36:06.979Z,6.53
2018-11-13T18:38:32.276Z,7.80
2018-11-13T18:40:57.277Z,9.97
2018-11-13T18:43:22.407Z,9.53
2018-11-13T18:45:47.557Z,9.30
2018-11-13T18:48:12.749Z,7.37
2018-11-13T18:50:56.861Z,8.20
2018-11-13T18:53:22.003Z,5.20
2018-11-13T18:55:47.091Z,7.33
2018-11-13T18:58:12.268Z,8.00
2018-11-13T19:00:38.662Z,6.70
2018-11-13T19:03:04.821Z,8.23
2018-11-13T19:05:48.944Z,6.57
2018-11-13T19:08:14.095Z,8.43
2018-11-13T19:10:57.999Z,8.30
2018-11-13T19:13:24.709Z,8.90
2018-11-13T19:15:57.398Z,4.43
2018-11-13T19:18:22.823Z,11.53
2018-11-13T19:20:48.009Z,6.73
2018-11-13T19:25:51.097Z,8.03
2018-11-13T19:28:16.297Z,10.47
2018-11-13T19:30:41.416Z,9.80
2018-11-13T19:33:06.598Z,6.00
2018-11-13T19:35:31.968Z,9.13
2018-11-13T19:37:56.862Z,6.80
2018-11-13T19:40:40.680Z,7.53
2018-11-13T19:43:07.252Z,5.63
2018-11-13T19:45:32.351Z,10.53
2018-11-13T19:48:16.479Z,7.67
2018-11-13T19:53:17.913Z,5.20
2018-11-13T19:55:43.041Z,11.27
2018-11-13T19:58:08.634Z,8.00
2018-11-13T20:00:35.221Z,8.03
2018-11-13T20:03:19.090Z,8.40
2018-11-13T20:05:44.287Z,11.10
2018-11-13T20:10:46.511Z,6.87
2018-11-13T20:13:11.899Z,10.90
2018-11-13T20:15:37.575Z,8.87
2018-11-13T20:18:02.769Z,6.00
2018-11-13T20:20:46.617Z,7.13
2018-11-13T20:23:11.770Z,8.10
2018-11-13T20:25:37.231Z,7.43
2018-11-13T20:28:02.508Z,7.20
2018-11-13T20:30:29.083Z,6.87
2018-11-13T20:32:54.203Z,8.00
2018-11-13T20:38:14.912Z,7.93
2018-11-13T20:40:40.118Z,10.73
2018-11-13T20:43:06.747Z,9.10
2018-11-13T20:45:50.825Z,4.63
2018-11-13T20:48:16.017Z,8.73
2018-11-13T20:50:41.267Z,7.97
2018-11-13T20:53:06.385Z,8.10
2018-11-13T20:55:31.543Z,7.60
2018-11-13T20:57:56.800Z,9.83
2018-11-13T21:00:40.637Z,8.83
2018-11-13T21:03:05.970Z,5.83
2018-11-13T21:05:31.078Z,9.77
2018-11-13T21:07:56.378Z,8.73
2018-11-13T21:10:22.339Z,11.10
2018-11-13T21:15:43.153Z,6.13
2018-11-13T21:18:08.300Z,8.47
2018-11-13T21:20:33.448Z,7.43
2018-11-13T21:23:17.543Z,10.20
2018-11-13T21:25:42.628Z,6.53
2018-11-13T21:28:07.776Z,9.93
2018-11-13T21:30:32.993Z,8.57
2018-11-13T21:32:58.068Z,8.40
2018-11-13T21:35:23.149Z,7.00
2018-11-13T21:37:49.744Z,11.07
2018-11-13T21:40:18.639Z,8.73
2018-11-13T21:42:44.513Z,8.50
2018-11-13T21:45:10.449Z,10.70
2018-11-13T21:50:13.783Z,7.87
2018-11-13T21:52:38.927Z,7.67
2018-11-13T21:55:04.104Z,9.07
2018-11-13T21:57:29.213Z,9.27
2018-11-13T21:59:54.454Z,8.67
2018-11-13T22:02:19.553Z,7.13
2018-11-13T22:05:03.741Z,6.47
2018-11-13T22:07:28.859Z,8.63
2018-11-13T22:09:53.978Z,7.37
2018-11-13T22:12:19.063Z,10.43
2018-11-13T22:14:44.174Z,8.30
2018-11-13T22:17:09.306Z,6.53
2018-11-13T22:19:53.371Z,7.47
2018-11-13T22:22:18.528Z,8.83
2018-11-13T22:24:43.574Z,10.47
2018-11-13T22:27:08.769Z,9.20
2018-11-13T22:29:33.770Z,12.73
2018-11-13T22:31:58.834Z,10.53
2018-11-13T22:34:23.928Z,10.03
2018-11-13T22:36:49.041Z,12.23
2018-11-13T22:39:14.144Z,7.77
2018-11-13T22:41:39.228Z,11.53
2018-11-13T22:44:04.289Z,7.97
2018-11-13T22:46:29.388Z,14.27
2018-11-13T22:48:54.443Z,9.50
2018-11-13T22:51:19.544Z,11.37
2018-11-13T22:53:44.633Z,7.23
2018-11-13T22:56:09.729Z,10.77
2018-11-13T22:58:34.858Z,9.50
2018-11-13T23:01:00.048Z,9.03
2018-11-13T23:03:25.016Z,7.93
2018-11-13T23:06:09.086Z,10.67
2018-11-13T23:08:34.172Z,12.27
2018-11-13T23:11:12.510Z,10.60
2018-11-13T23:13:37.594Z,10.53
2018-11-13T23:16:02.653Z,7.97
2018-11-13T23:18:27.741Z,8.77
2018-11-13T23:20:52.832Z,12.07
2018-11-13T23:23:17.926Z,11.97
2018-11-13T23:25:43.006Z,11.00
2018-11-13T23:28:08.195Z,14.33
2018-11-13T23:30:33.198Z,11.03
2018-11-13T23:33:17.228Z,9.60
2018-11-13T23:35:42.329Z,11.40
2018-11-13T23:38:07.406Z,12.37
2018-11-13T23:40:32.533Z,15.87
2018-11-13T23:42:57.574Z,13.80
2018-11-13T23:45:23.781Z,11.67
2018-11-13T23:47:49.186Z,13.20
2018-11-13T23:50:14.403Z,10.73
2018-11-13T23:52:39.512Z,12.73
2018-11-13T23:55:04.743Z,14.20
2018-11-13T23:57:29.816Z,12.83
2018-11-13T23:59:54.975Z,17.23
